Time;durP1;ratioP1;P1;durP2;ratioP2;P2;SDS_P1;SDS_P2;PMS_P1;PMS_P2;Temp;Humidity;BMP_temperature;BMP_pressure;BME280_temperature;BME280_humidity;BME280_pressure;Samples;Min_cycle;Max_cycle;Signal;HPM_P1;HPM_P2
2022/05/22 00:00:22;;;;;;;14.05;5.70;;;8.70;69.70;;;;;;5025435;28;20044;-86
2022/05/22 00:02:48;;;;;;;17.83;6.93;;;8.60;6.40;;;;;;5024041;28;20301;-86
2022/05/22 00:05:17;;;;;;;14.02;7.53;;;8.60;3.70;;;;;;5034535;28;20064;-87
2022/05/22 00:07:43;;;;;;;16.00;6.47;;;8.60;93.90;;;;;;5070560;28;20041;-86
2022/05/22 00:10:12;;;;;;;16.55;7.85;;;8.60;56.10;;;;;;5038531;28;20259;-85
2022/05/22 00:12:40;;;;;;;12.77;6.38;;;8.70;94.20;;;;;;5023531;28;20040;-86
2022/05/22 00:15:07;;;;;;;12.93;6.47;;;8.50;18.00;;;;;;5035348;28;20042;-86
2022/05/22 00:17:32;;;;;;;14.75;7.47;;;8.50;1.70;;;;;;5021053;28;20053;-86
2022/05/22 00:19:58;;;;;;;20.15;7.88;;;8.50;43.80;;;;;;5018603;28;20036;-86
2022/05/22 00:22:24;;;;;;;17.83;7.40;;;8.50;91.10;;;;;;5021232;28;20091;-85
2022/05/22 00:24:53;;;;;;;19.05;7.47;;;8.40;86.40;;;;;;5032646;28;20040;-86
2022/05/22 00:27:19;;;;;;;15.45;7.63;;;8.40;99.90;;;;;;5021240;28;20241;-85
2022/05/22 00:29:44;;;;;;;15.73;9.02;;;8.50;99.90;;;;;;5039253;28;20049;-86
2022/05/22 00:32:10;;;;;;;12.00;7.35;;;8.50;99.90;;;;;;5038104;28;20040;-87
2022/05/22 00:34:37;;;;;;;13.70;8.10;;;8.50;99.90;;;;;;5020519;28;20423;-87
2022/05/22 00:37:05;;;;;;;13.27;7.28;;;8.50;99.90;;;;;;5036184;28;20047;-85
2022/05/22 00:39:35;;;;;;;16.80;7.63;;;8.40;99.90;;;;;;5023572;28;20382;-84
2022/05/22 00:42:01;;;;;;;16.85;8.00;;;8.40;99.90;;;;;;5021120;28;20606;-85
2022/05/22 00:44:27;;;;;;;21.00;7.35;;;8.40;99.90;;;;;;5018434;28;20412;-84
2022/05/22 00:46:52;;;;;;;18.08;8.45;;;8.30;95.00;;;;;;5045465;28;20037;-84
2022/05/22 00:49:26;;;;;;;16.50;9.18;;;8.30;99.90;;;;;;5041655;28;20307;-84
2022/05/22 00:52:10;;;;;;;14.80;8.95;;;8.40;99.90;;;;;;5046393;28;20523;-84
2022/05/22 00:54:52;;;;;;;17.23;9.07;;;8.40;99.90;;;;;;5038332;28;20106;-84
2022/05/22 00:57:24;;;;;;;18.98;8.70;;;8.30;99.90;;;;;;5041034;28;20064;-84
2022/05/22 00:59:54;;;;;;;16.80;8.95;;;8.40;99.90;;;;;;5028724;28;20675;-84
2022/05/22 01:02:21;;;;;;;17.88;8.93;;;8.20;99.90;;;;;;5025201;28;20578;-84
2022/05/22 01:04:49;;;;;;;20.35;9.13;;;8.30;99.90;;;;;;5026611;28;20041;-84
2022/05/22 01:07:16;;;;;;;21.70;9.15;;;8.30;99.90;;;;;;5026764;28;20029;-84
2022/05/22 01:09:41;;;;;;;20.88;9.80;;;8.40;99.90;;;;;;5025027;28;20476;-84
2022/05/22 01:12:29;;;;;;;19.05;9.73;;;8.30;99.90;;;;;;5029479;28;20120;-84
2022/05/22 01:14:55;;;;;;;21.50;10.18;;;8.30;99.90;;;;;;5039292;28;20402;-84
2022/05/22 01:17:21;;;;;;;16.42;8.38;;;8.30;99.90;;;;;;5039401;28;20030;-84
2022/05/22 01:20:00;;;;;;;16.05;8.75;;;8.30;99.90;;;;;;5020845;28;20041;-84
2022/05/22 01:22:27;;;;;;;16.08;8.05;;;8.30;99.90;;;;;;5054408;28;20049;-84
2022/05/22 01:24:56;;;;;;;16.00;8.55;;;8.20;99.90;;;;;;5022238;28;20526;-83
2022/05/22 01:27:23;;;;;;;13.38;8.85;;;8.20;99.90;;;;;;5038848;28;20095;-84
2022/05/22 01:29:49;;;;;;;19.92;9.18;;;8.20;99.90;;;;;;5040812;28;20381;-84
2022/05/22 01:32:15;;;;;;;16.25;8.73;;;8.10;99.90;;;;;;5048951;28;20048;-84
2022/05/22 01:34:40;;;;;;;14.50;8.68;;;8.10;99.90;;;;;;5039805;28;20279;-83
2022/05/22 01:37:09;;;;;;;19.17;9.00;;;8.00;99.90;;;;;;5050218;28;20044;-84
2022/05/22 01:39:35;;;;;;;9.93;6.30;;;8.00;99.90;;;;;;5043395;28;20070;-83
2022/05/22 01:42:00;;;;;;;19.85;9.45;;;7.80;99.90;;;;;;5039170;28;20522;-84
2022/05/22 01:44:26;;;;;;;12.52;8.00;;;7.80;99.90;;;;;;5019775;28;20033;-84
2022/05/22 01:46:52;;;;;;;15.70;7.80;;;7.70;99.90;;;;;;5042200;28;20044;-84
2022/05/22 01:49:17;;;;;;;20.02;8.50;;;7.70;99.90;;;;;;5023357;28;20040;-84
2022/05/22 01:51:43;;;;;;;17.50;9.10;;;7.70;99.90;;;;;;5040824;28;20447;-84
2022/05/22 01:54:09;;;;;;;23.13;11.23;;;7.80;99.90;;;;;;5038467;28;20040;-84
2022/05/22 01:56:37;;;;;;;16.45;8.93;;;7.90;99.90;;;;;;5037231;28;20174;-84
2022/05/22 01:59:03;;;;;;;15.23;8.48;;;7.80;99.90;;;;;;5049413;28;20275;-83
2022/05/22 02:01:30;;;;;;;20.17;8.82;;;7.90;99.90;;;;;;5025414;28;20140;-84
2022/05/22 02:03:56;;;;;;;19.63;9.68;;;7.80;99.90;;;;;;5047099;28;20032;-84
2022/05/22 02:06:21;;;;;;;16.23;9.65;;;7.80;99.90;;;;;;5045652;28;20041;-84
2022/05/22 02:08:47;;;;;;;18.80;9.57;;;7.70;99.90;;;;;;5022527;28;20354;-84
2022/05/22 02:11:12;;;;;;;15.18;8.63;;;7.70;99.90;;;;;;5037578;28;20037;-84
2022/05/22 02:13:43;;;;;;;18.65;9.20;;;7.70;99.90;;;;;;5047821;28;20236;-84
2022/05/22 02:16:09;;;;;;;17.13;8.13;;;7.70;99.90;;;;;;5021080;28;20408;-84
2022/05/22 02:18:34;;;;;;;15.93;10.02;;;7.80;99.90;;;;;;5051135;28;20054;-84
2022/05/22 02:21:01;;;;;;;23.98;9.65;;;7.70;99.90;;;;;;5020656;28;20604;-83
2022/05/22 02:23:26;;;;;;;21.27;10.68;;;7.70;99.90;;;;;;5023940;28;20577;-83
2022/05/22 02:25:54;;;;;;;19.77;8.95;;;7.70;99.90;;;;;;5023312;28;20036;-84
2022/05/22 02:28:22;;;;;;;23.98;10.00;;;7.70;99.90;;;;;;5049998;28;20025;-83
2022/05/22 02:30:51;;;;;;;22.80;10.82;;;7.60;99.90;;;;;;5019477;28;20463;-83
2022/05/22 02:33:17;;;;;;;17.30;8.98;;;7.70;99.90;;;;;;5042379;28;20045;-83
2022/05/22 02:35:43;;;;;;;28.25;11.73;;;7.60;99.90;;;;;;5046620;28;20052;-83
2022/05/22 02:38:10;;;;;;;15.27;8.88;;;7.60;99.90;;;;;;5037388;28;20029;-83
2022/05/22 02:40:37;;;;;;;28.60;9.95;;;7.70;99.90;;;;;;5021910;28;20033;-84
2022/05/22 02:43:02;;;;;;;13.35;9.10;;;7.70;99.90;;;;;;5034678;28;20044;-83
2022/05/22 02:45:32;;;;;;;20.10;9.90;;;7.60;99.90;;;;;;5071364;28;20051;-83
2022/05/22 02:47:58;;;;;;;21.67;9.55;;;7.60;99.90;;;;;;5023185;28;20036;-83
2022/05/22 02:50:26;;;;;;;19.35;9.02;;;7.50;99.90;;;;;;5022835;28;20037;-84
2022/05/22 02:52:52;;;;;;;20.50;9.88;;;7.50;99.90;;;;;;5039060;28;20287;-83
2022/05/22 02:55:18;;;;;;;15.95;9.20;;;7.50;99.90;;;;;;5034919;28;20527;-83
2022/05/22 02:57:44;;;;;;;12.00;8.00;;;7.40;99.90;;;;;;5043033;28;20032;-83
2022/05/22 03:00:16;;;;;;;37.25;4.60;;;7.40;99.90;;;;;;5057755;28;20734;-83
2022/05/22 03:02:45;;;;;;;19.75;9.20;;;7.40;99.90;;;;;;5016965;28;20041;-83
2022/05/22 03:05:11;;;;;;;14.05;7.50;;;7.40;99.90;;;;;;5068407;28;20040;-83
2022/05/22 03:07:37;;;;;;;12.57;8.23;;;7.40;99.90;;;;;;5025482;28;20036;-83
2022/05/22 03:10:05;;;;;;;12.82;8.07;;;7.40;99.90;;;;;;5045218;28;20072;-83
2022/05/22 03:12:31;;;;;;;12.65;7.78;;;7.30;99.90;;;;;;5021645;28;20040;-83
2022/05/22 03:15:01;;;;;;;11.30;6.90;;;7.30;99.90;;;;;;5034728;28;20074;-83
2022/05/22 03:17:27;;;;;;;12.07;7.47;;;7.40;99.90;;;;;;5025910;28;20032;-83
2022/05/22 03:19:53;;;;;;;14.32;8.20;;;7.30;99.90;;;;;;5040853;28;20216;-83
2022/05/22 03:22:19;;;;;;;16.13;8.75;;;7.30;99.90;;;;;;5036105;28;20311;-83
2022/05/22 03:24:45;;;;;;;14.40;8.38;;;7.30;99.90;;;;;;5047494;28;20029;-83
2022/05/22 03:27:13;;;;;;;17.10;9.57;;;7.30;99.90;;;;;;5025435;28;20707;-83
2022/05/22 03:29:43;;;;;;;13.40;8.45;;;7.30;99.90;;;;;;5021684;28;20519;-83
2022/05/22 03:32:09;;;;;;;12.57;8.05;;;7.40;99.90;;;;;;5038700;28;20037;-83
2022/05/22 03:34:35;;;;;;;16.00;9.30;;;7.40;99.90;;;;;;5018246;28;20494;-83
2022/05/22 03:37:01;;;;;;;14.27;9.10;;;7.40;99.90;;;;;;5038781;28;20148;-83
2022/05/22 03:39:27;;;;;;;14.23;8.77;;;7.40;99.90;;;;;;5037271;28;20040;-83
2022/05/22 03:41:53;;;;;;;15.23;8.90;;;7.40;99.90;;;;;;5016564;28;20071;-84
2022/05/22 03:44:21;;;;;;;12.30;8.65;;;7.40;99.90;;;;;;5048075;28;20040;-83
2022/05/22 03:46:47;;;;;;;12.50;8.13;;;7.40;99.90;;;;;;5049539;28;20547;-83
2022/05/22 03:49:13;;;;;;;11.05;7.53;;;7.40;99.90;;;;;;5034537;28;20499;-83
2022/05/22 03:51:40;;;;;;;16.17;8.70;;;7.30;99.90;;;;;;5019494;28;20043;-83
2022/05/22 03:54:06;;;;;;;12.23;8.18;;;7.40;99.90;;;;;;5020025;28;20037;-83
2022/05/22 03:56:32;;;;;;;11.30;8.15;;;7.50;99.90;;;;;;5048913;28;20138;-83
2022/05/22 03:59:02;;;;;;;14.05;9.10;;;7.50;99.90;;;;;;5027277;28;20072;-83
2022/05/22 04:01:28;;;;;;;16.50;8.35;;;7.50;99.90;;;;;;5020476;28;20124;-83
2022/05/22 04:03:54;;;;;;;13.40;8.40;;;7.60;99.90;;;;;;5044729;28;20037;-83
2022/05/22 04:06:19;;;;;;;14.70;8.98;;;7.60;99.90;;;;;;5042655;28;20041;-83
2022/05/22 04:08:45;;;;;;;22.17;10.15;;;7.70;99.90;;;;;;5054083;28;20033;-83
2022/05/22 04:11:14;;;;;;;16.25;8.27;;;7.80;99.90;;;;;;5042842;28;20116;-83
2022/05/22 04:13:43;;;;;;;16.65;9.25;;;7.80;99.90;;;;;;5026146;28;20699;-83
2022/05/22 04:16:09;;;;;;;14.77;9.43;;;7.90;99.90;;;;;;5024089;28;20505;-83
2022/05/22 04:18:35;;;;;;;15.98;9.50;;;8.00;99.90;;;;;;5048884;28;20131;-83
2022/05/22 04:21:00;;;;;;;16.65;10.00;;;8.10;99.90;;;;;;5039679;28;20400;-83
2022/05/22 04:26:12;;;;;;;9.75;8.32;;;8.30;99.90;;;;;;5044715;28;20040;-83
2022/05/22 04:28:38;;;;;;;14.82;9.20;;;8.40;99.90;;;;;;5046039;28;20037;-82
2022/05/22 04:31:04;;;;;;;13.73;8.73;;;8.60;99.90;;;;;;5023392;28;20044;-83
2022/05/22 04:33:31;;;;;;;15.38;9.25;;;8.70;99.90;;;;;;5036180;28;20094;-83
2022/05/22 04:35:58;;;;;;;12.82;8.48;;;8.80;99.90;;;;;;5026072;28;20091;-83
2022/05/22 04:38:24;;;;;;;15.45;7.68;;;8.90;99.90;;;;;;5025102;28;20049;-83
2022/05/22 04:41:01;;;;;;;18.05;9.35;;;8.90;99.90;;;;;;5017266;28;20114;-83
2022/05/22 04:43:28;;;;;;;13.68;8.20;;;9.10;99.90;;;;;;5023411;28;20063;-82
2022/05/22 04:45:57;;;;;;;13.40;9.32;;;9.10;99.90;;;;;;5043862;28;20508;-83
2022/05/22 04:48:25;;;;;;;15.15;9.18;;;9.20;99.90;;;;;;5023241;28;20076;-83
2022/05/22 04:50:52;;;;;;;18.60;9.52;;;9.30;99.90;;;;;;5067422;28;20109;-83
2022/05/22 04:53:20;;;;;;;15.63;9.65;;;9.40;99.90;;;;;;5043442;28;20044;-83
2022/05/22 04:55:49;;;;;;;12.70;9.05;;;9.50;99.90;;;;;;5022342;28;20109;-83
2022/05/22 04:58:16;;;;;;;17.98;9.50;;;9.70;99.90;;;;;;5068636;28;20041;-83
2022/05/22 05:00:42;;;;;;;15.95;9.55;;;9.70;99.90;;;;;;5050806;28;20044;-83
2022/05/22 05:03:08;;;;;;;14.55;9.32;;;9.80;99.90;;;;;;5027263;28;20064;-83
2022/05/22 05:05:34;;;;;;;16.88;9.70;;;9.70;99.90;;;;;;5024772;28;20507;-83
2022/05/22 05:08:00;;;;;;;19.00;10.38;;;9.80;99.90;;;;;;5026763;28;20040;-83
2022/05/22 05:10:30;;;;;;;17.45;10.18;;;9.90;99.90;;;;;;5022669;28;20160;-83
2022/05/22 05:12:56;;;;;;;19.42;9.80;;;10.00;99.90;;;;;;5065725;28;20044;-83
2022/05/22 05:15:24;;;;;;;15.45;9.98;;;10.20;99.90;;;;;;5026471;28;20188;-83
2022/05/22 05:17:50;;;;;;;15.85;8.98;;;10.30;99.90;;;;;;5026632;28;20041;-83
2022/05/22 05:20:18;;;;;;;20.15;10.02;;;10.40;99.90;;;;;;5035458;28;20548;-83
2022/05/22 05:22:47;;;;;;;14.18;9.23;;;10.50;99.90;;;;;;5017617;28;20064;-83
2022/05/22 05:25:13;;;;;;;18.63;10.23;;;10.60;99.90;;;;;;5042166;28;20063;-83
2022/05/22 05:27:39;;;;;;;19.75;10.52;;;10.70;99.90;;;;;;5038477;28;20029;-83
2022/05/22 05:30:05;;;;;;;22.63;10.32;;;10.80;99.90;;;;;;5020827;28;20075;-83
2022/05/22 05:32:31;;;;;;;16.40;9.57;;;10.90;92.20;;;;;;5040522;28;20044;-83
2022/05/22 05:35:05;;;;;;;18.55;9.80;;;11.00;69.20;;;;;;5067195;28;20048;-83
2022/05/22 05:37:30;;;;;;;17.52;9.50;;;11.10;60.00;;;;;;5050443;28;20168;-83
2022/05/22 05:39:56;;;;;;;20.83;10.20;;;11.20;62.60;;;;;;5047438;28;20186;-83
2022/05/22 05:42:23;;;;;;;20.58;10.70;;;11.40;84.80;;;;;;5027330;28;20581;-83
2022/05/22 05:44:49;;;;;;;19.70;10.60;;;11.50;67.00;;;;;;5024390;28;20098;-83
2022/05/22 05:47:15;;;;;;;18.27;10.00;;;11.60;62.00;;;;;;5023164;28;20037;-84
2022/05/22 05:49:41;;;;;;;20.48;9.65;;;11.80;10.80;;;;;;5020326;28;20103;-83
2022/05/22 05:52:07;;;;;;;18.55;9.98;;;11.80;11.90;;;;;;5022156;28;20048;-83
2022/05/22 05:54:33;;;;;;;21.63;9.57;;;12.00;1.00;;;;;;5035487;28;20544;-83
2022/05/22 05:56:59;;;;;;;22.10;10.43;;;12.10;1.00;;;;;;5051967;28;20150;-83
2022/05/22 05:59:26;;;;;;;24.67;10.23;;;12.20;1.00;;;;;;5039958;28;20037;-83
2022/05/22 06:01:52;;;;;;;22.60;11.30;;;12.40;1.00;;;;;;5021998;28;20121;-83
2022/05/22 06:04:17;;;;;;;21.40;9.55;;;12.50;1.00;;;;;;5036625;28;20368;-83
2022/05/22 06:06:43;;;;;;;21.10;9.90;;;12.60;1.00;;;;;;5024528;28;20032;-83
2022/05/22 06:09:09;;;;;;;25.85;9.60;;;12.80;1.00;;;;;;5020493;28;20116;-83
2022/05/22 06:11:35;;;;;;;17.40;9.90;;;12.90;1.00;;;;;;5060103;28;20040;-83
2022/05/22 06:14:01;;;;;;;17.50;9.18;;;12.90;1.00;;;;;;5021065;28;20148;-83
2022/05/22 06:16:26;;;;;;;19.45;9.43;;;13.00;99.90;;;;;;5025669;28;20099;-83
2022/05/22 06:18:52;;;;;;;17.23;9.63;;;13.10;99.90;;;;;;5023667;28;20512;-83
2022/05/22 06:21:21;;;;;;;19.77;9.75;;;13.20;99.90;;;;;;5039403;28;20508;-83
2022/05/22 06:23:47;;;;;;;19.02;9.40;;;13.20;99.90;;;;;;5023771;28;20099;-82
2022/05/22 06:26:17;;;;;;;22.55;9.57;;;13.40;99.90;;;;;;5043681;28;20047;-83
2022/05/22 06:28:44;;;;;;;17.63;9.70;;;13.40;99.90;;;;;;5041046;28;21590;-83
2022/05/22 06:31:11;;;;;;;18.33;8.60;;;13.50;99.90;;;;;;5039200;28;20503;-83
2022/05/22 06:33:38;;;;;;;19.50;9.38;;;13.50;99.90;;;;;;5035929;28;20102;-83
2022/05/22 06:36:13;;;;;;;18.48;8.77;;;13.60;99.90;;;;;;5029253;28;20037;-83
2022/05/22 06:41:26;;;;;;;17.95;7.55;;;13.80;99.90;;;;;;5040841;28;20449;-83
2022/05/22 06:43:53;;;;;;;21.42;8.25;;;14.00;99.90;;;;;;5043165;28;20038;-83
2022/05/22 06:46:33;;;;;;;12.55;7.10;;;14.00;99.90;;;;;;5025872;28;20365;-83
2022/05/22 06:48:59;;;;;;;17.13;7.55;;;14.00;99.90;;;;;;5038711;28;20090;-83
2022/05/22 06:51:24;;;;;;;18.20;7.22;;;14.10;99.90;;;;;;5069032;28;20084;-83
2022/05/22 06:53:50;;;;;;;16.75;7.13;;;14.10;99.90;;;;;;5018952;28;20040;-83
2022/05/22 06:56:16;;;;;;;12.57;7.55;;;14.30;99.90;;;;;;5026125;28;20036;-83
2022/05/22 06:58:41;;;;;;;15.52;7.28;;;14.30;99.90;;;;;;5018940;28;20119;-82
2022/05/22 07:01:07;;;;;;;13.55;6.78;;;14.40;99.90;;;;;;5017436;28;20143;-83
2022/05/22 07:03:35;;;;;;;19.98;7.28;;;14.60;99.90;;;;;;5017781;28;20071;-83
2022/05/22 07:06:00;;;;;;;15.90;7.10;;;14.70;99.90;;;;;;5044251;28;20102;-83
2022/05/22 07:08:27;;;;;;;13.20;6.60;;;14.70;99.90;;;;;;5013825;28;20041;-83
2022/05/22 07:13:37;;;;;;;12.30;5.78;;;14.70;57.30;;;;;;5025153;28;20049;-83
2022/05/22 07:16:06;;;;;;;11.88;5.70;;;14.90;73.50;;;;;;5013050;28;20203;-83
2022/05/22 07:18:32;;;;;;;11.93;6.10;;;15.00;38.20;;;;;;5045181;28;20058;-83
2022/05/22 07:20:58;;;;;;;14.13;5.72;;;15.10;46.40;;;;;;5046502;28;20101;-83
2022/05/22 07:23:23;;;;;;;12.68;4.85;;;15.00;1.00;;;;;;5032227;28;20041;-83
2022/05/22 07:25:51;;;;;;;13.32;4.50;;;15.10;1.00;;;;;;5020931;28;20370;-83
2022/05/22 07:28:17;;;;;;;12.00;4.00;;;15.10;1.00;;;;;;5030232;28;20041;-83
2022/05/22 07:30:43;;;;;;;16.52;4.47;;;15.20;1.00;;;;;;5012929;28;20058;-83
2022/05/22 07:33:09;;;;;;;10.13;4.15;;;15.20;1.00;;;;;;5028427;28;20154;-83
2022/05/22 07:35:35;;;;;;;11.20;5.05;;;15.40;1.00;;;;;;5015695;28;20124;-84
2022/05/22 07:38:02;;;;;;;12.07;4.63;;;15.40;1.00;;;;;;5020045;28;20136;-83
2022/05/22 07:40:29;;;;;;;8.45;4.45;;;15.40;1.00;;;;;;5022665;28;20412;-83
2022/05/22 07:42:55;;;;;;;13.93;5.07;;;15.40;1.00;;;;;;5060816;28;20527;-83
2022/05/22 07:45:21;;;;;;;10.02;4.32;;;15.70;20.60;;;;;;5015951;28;20098;-83
2022/05/22 07:47:51;;;;;;;14.20;5.20;;;15.90;1.00;;;;;;5019902;28;20052;-83
2022/05/22 07:50:17;;;;;;;14.30;4.95;;;15.80;1.00;;;;;;5019961;28;20021;-83
2022/05/22 07:52:48;;;;;;;11.18;4.78;;;16.00;1.00;;;;;;5020476;28;21001;-83
2022/05/22 07:55:18;;;;;;;16.65;4.47;;;16.20;67.10;;;;;;5032042;28;20060;-82
2022/05/22 07:57:46;;;;;;;7.82;3.15;;;15.80;1.00;;;;;;5019870;28;20070;-83
2022/05/22 08:00:15;;;;;;;11.88;3.28;;;15.50;99.90;;;;;;5014575;28;20053;-83
2022/05/22 08:02:41;;;;;;;8.32;2.60;;;15.70;99.90;;;;;;5047721;28;20461;-83
2022/05/22 08:05:11;;;;;;;12.10;3.13;;;15.70;99.90;;;;;;5017549;28;20484;-84
2022/05/22 08:07:36;;;;;;;9.20;3.28;;;16.00;1.00;;;;;;5018520;28;20667;-83
2022/05/22 08:10:04;;;;;;;8.52;3.42;;;16.20;99.90;;;;;;5017613;28;20028;-83
2022/05/22 08:12:37;;;;;;;10.48;2.60;;;16.50;99.90;;;;;;5014256;28;20037;-83
2022/05/22 08:15:04;;;;;;;8.27;3.17;;;16.70;99.90;;;;;;5035374;28;20140;-83
2022/05/22 08:17:35;;;;;;;10.27;3.13;;;16.90;99.90;;;;;;5020919;28;20067;-83
2022/05/22 08:20:06;;;;;;;9.00;3.35;;;17.00;99.90;;;;;;5035608;28;20545;-83
2022/05/22 08:22:32;;;;;;;9.60;3.00;;;16.90;99.90;;;;;;5033818;28;20501;-83
2022/05/22 08:25:00;;;;;;;8.68;3.00;;;17.20;99.90;;;;;;5031741;28;20094;-83
2022/05/22 08:27:25;;;;;;;8.05;2.95;;;17.30;99.90;;;;;;5040956;28;20045;-83
2022/05/22 08:29:51;;;;;;;8.35;3.33;;;17.60;99.90;;;;;;5056572;28;20067;-83
2022/05/22 08:32:17;;;;;;;11.48;3.30;;;17.70;99.90;;;;;;5044794;28;20044;-83
2022/05/22 08:34:42;;;;;;;9.65;3.30;;;17.60;99.90;;;;;;5015483;28;20093;-83
2022/05/22 08:37:08;;;;;;;8.20;2.95;;;17.40;99.90;;;;;;5031768;28;20052;-83
2022/05/22 08:39:33;;;;;;;7.28;2.60;;;17.70;99.90;;;;;;5037509;28;20377;-83
2022/05/22 08:41:59;;;;;;;7.43;2.88;;;17.20;99.90;;;;;;5020899;28;20048;-83
2022/05/22 08:44:33;;;;;;;9.95;2.90;;;17.20;99.90;;;;;;5045225;28;20041;-83
2022/05/22 08:47:21;;;;;;;9.10;2.90;;;17.30;99.90;;;;;;5041318;28;20033;-83
2022/05/22 08:50:08;;;;;;;6.93;2.50;;;17.30;99.90;;;;;;5048361;28;20045;-83
2022/05/22 08:52:42;;;;;;;8.18;2.00;;;17.10;99.90;;;;;;5062717;28;20651;-83
2022/05/22 08:59:00;;;;;;;8.93;2.67;;;16.90;99.90;;;;;;5031323;28;20056;-83
2022/05/22 09:01:30;;;;;;;6.78;2.17;;;17.60;99.90;;;;;;5046789;28;20049;-83
2022/05/22 09:03:59;;;;;;;7.95;2.20;;;17.70;99.90;;;;;;5050189;28;20488;-83
2022/05/22 09:06:30;;;;;;;5.63;2.13;;;18.00;99.90;;;;;;5009452;28;20075;-83
2022/05/22 09:08:57;;;;;;;10.35;2.60;;;17.90;99.90;;;;;;5045187;28;20120;-83
2022/05/22 09:11:50;;;;;;;8.98;2.40;;;17.90;99.90;;;;;;5040990;28;20185;-83
2022/05/22 09:14:47;;;;;;;7.10;1.98;;;18.30;99.90;;;;;;5029666;28;20049;-83
2022/05/22 09:17:18;;;;;;;6.78;2.08;;;18.70;99.90;;;;;;5015655;28;20041;-83
2022/05/22 09:19:54;;;;;;;7.55;2.28;;;18.80;99.90;;;;;;5061576;28;20026;-83
2022/05/22 09:22:21;;;;;;;8.32;2.13;;;19.20;99.90;;;;;;5030941;28;20132;-83
2022/05/22 09:25:08;;;;;;;9.15;2.03;;;19.30;99.90;;;;;;5032833;28;20121;-83
2022/05/22 09:27:57;;;;;;;7.95;2.60;;;19.60;99.90;;;;;;5026928;28;20040;-83
2022/05/22 09:30:32;;;;;;;5.78;1.90;;;19.80;99.90;;;;;;5038935;28;20076;-83
2022/05/22 09:33:40;;;;;;;8.68;1.95;;;19.30;99.90;;;;;;5034635;28;20049;-83
2022/05/22 09:36:19;;;;;;;5.85;1.85;;;19.20;99.90;;;;;;5033325;28;20045;-83
2022/05/22 09:39:10;;;;;;;5.40;2.08;;;19.50;99.90;;;;;;5019052;28;20053;-83
2022/05/22 09:41:47;;;;;;;4.97;1.75;;;19.30;99.90;;;;;;5022736;28;20049;-83
2022/05/22 09:44:36;;;;;;;6.45;2.00;;;19.30;99.90;;;;;;5039041;28;20127;-83
2022/05/22 09:47:21;;;;;;;7.93;1.90;;;18.90;99.90;;;;;;5031164;28;20169;-83
2022/05/22 09:49:49;;;;;;;5.90;2.05;;;19.20;99.90;;;;;;5044059;28;20499;-83
2022/05/22 09:52:22;;;;;;;4.45;1.90;;;19.20;99.90;;;;;;5063825;28;20048;-83
2022/05/22 09:54:54;;;;;;;9.15;2.25;;;19.70;99.90;;;;;;5065827;28;20043;-83
2022/05/22 09:57:23;;;;;;;4.63;2.08;;;20.20;99.90;;;;;;5019504;28;20041;-83
2022/05/22 10:00:03;;;;;;;8.55;2.05;;;20.20;99.90;;;;;;5045120;28;20041;-83
2022/05/22 10:02:46;;;;;;;5.10;2.10;;;20.10;99.90;;;;;;5044032;28;20739;-83
2022/05/22 10:05:21;;;;;;;4.65;1.80;;;20.30;99.90;;;;;;5025821;28;20037;-83
2022/05/22 10:08:06;;;;;;;4.72;1.77;;;20.90;99.90;;;;;;5020844;28;20033;-83
2022/05/22 10:10:48;;;;;;;6.45;2.15;;;20.90;99.90;;;;;;5023832;28;20033;-83
2022/05/22 10:13:45;;;;;;;4.20;1.60;;;21.10;99.90;;;;;;5034327;28;20127;-83
2022/05/22 10:16:36;;;;;;;5.80;1.65;;;21.40;99.90;;;;;;5035655;28;20187;-83
2022/05/22 10:19:27;;;;;;;6.38;1.90;;;21.50;99.90;;;;;;5018512;28;20048;-84
2022/05/22 10:22:21;;;;;;;4.70;1.50;;;21.00;99.90;;;;;;5010739;28;20053;-83
2022/05/22 10:25:01;;;;;;;7.05;1.58;;;21.10;99.90;;;;;;5021026;28;20492;-83
2022/05/22 10:27:39;;;;;;;7.15;1.73;;;20.70;99.90;;;;;;5020148;28;20052;-83
2022/05/22 10:30:25;;;;;;;6.60;2.45;;;21.00;99.90;;;;;;5013958;28;20148;-83
2022/05/22 10:33:04;;;;;;;6.78;1.67;;;21.30;99.90;;;;;;5032640;28;20149;-83
2022/05/22 10:35:51;;;;;;;4.82;1.65;;;21.50;99.90;;;;;;5042037;28;20044;-83
2022/05/22 10:38:23;;;;;;;7.22;2.03;;;21.50;99.90;;;;;;5047769;28;20483;-83
2022/05/22 10:43:51;;;;;;;4.13;1.60;;;21.40;99.90;;;;;;5037909;28;20056;-83
2022/05/22 10:46:17;;;;;;;7.00;1.70;;;21.60;99.90;;;;;;5047171;28;20068;-83
2022/05/22 10:48:55;;;;;;;7.28;2.10;;;21.50;99.90;;;;;;5029895;28;20121;-83
2022/05/22 10:51:29;;;;;;;5.55;1.60;;;21.10;99.90;;;;;;5033206;28;20044;-83
2022/05/22 10:53:59;;;;;;;7.13;1.80;;;20.30;96.80;;;;;;5030997;28;20515;-84
2022/05/22 10:56:29;;;;;;;7.65;2.10;;;20.50;99.30;;;;;;5017235;28;20116;-83
2022/05/22 10:59:03;;;;;;;4.50;1.60;;;20.40;99.90;;;;;;5035211;28;20488;-83
2022/05/22 11:01:38;;;;;;;5.38;1.90;;;21.30;99.90;;;;;;5036914;28;20357;-83
2022/05/22 11:04:07;;;;;;;6.22;1.85;;;21.30;99.90;;;;;;5051456;28;20618;-83
2022/05/22 11:06:36;;;;;;;4.80;1.67;;;21.30;99.00;;;;;;5032930;28;21010;-83
2022/05/22 11:09:04;;;;;;;6.70;2.00;;;21.00;97.20;;;;;;5033388;28;20061;-84
2022/05/22 11:11:32;;;;;;;4.05;1.50;;;21.00;97.10;;;;;;5023631;28;20105;-83
2022/05/22 11:14:15;;;;;;;5.80;2.05;;;20.90;96.90;;;;;;5023187;28;20456;-83
2022/05/22 11:16:41;;;;;;;5.10;1.85;;;20.10;93.20;;;;;;5030804;28;20484;-84
2022/05/22 11:19:18;;;;;;;5.03;1.48;;;19.70;94.30;;;;;;5030415;28;20657;-84
2022/05/22 11:22:13;;;;;;;4.75;1.80;;;19.60;93.80;;;;;;5034498;28;20129;-83
2022/05/22 11:24:47;;;;;;;6.60;2.00;;;19.70;92.00;;;;;;5028565;28;20036;-83
2022/05/22 11:27:26;;;;;;;9.40;2.00;;;19.60;90.10;;;;;;5016724;28;20451;-83
2022/05/22 11:30:13;;;;;;;5.00;1.60;;;19.70;93.70;;;;;;5017050;28;20393;-83
2022/05/22 11:32:58;;;;;;;6.57;2.05;;;20.10;99.50;;;;;;5013503;28;20659;-84
2022/05/22 11:35:38;;;;;;;8.00;1.60;;;21.40;98.60;;;;;;5019773;28;20045;-84
2022/05/22 11:38:38;;;;;;;6.05;1.98;;;21.30;99.60;;;;;;5030920;28;20515;-84
2022/05/22 11:41:10;;;;;;;5.97;1.55;;;21.90;99.90;;;;;;4996113;28;20130;-84
2022/05/22 11:43:55;;;;;;;7.32;1.80;;;21.40;99.90;;;;;;5015120;28;20097;-84
2022/05/22 11:46:39;;;;;;;6.20;1.83;;;21.20;99.90;;;;;;5017199;28;20032;-83
2022/05/22 11:49:17;;;;;;;5.45;1.92;;;21.00;94.70;;;;;;5018418;28;20087;-84
2022/05/22 11:52:08;;;;;;;5.00;1.45;;;20.60;99.90;;;;;;5016139;28;20470;-84
2022/05/22 11:55:04;;;;;;;4.70;1.90;;;21.50;99.90;;;;;;5020958;28;20549;-84
2022/05/22 11:57:49;;;;;;;5.63;1.85;;;21.10;97.30;;;;;;5019724;28;20177;-84
2022/05/22 12:00:27;;;;;;;8.48;2.03;;;21.10;99.90;;;;;;5018181;28;20052;-84
2022/05/22 12:03:11;;;;;;;4.97;1.73;;;21.40;99.90;;;;;;5043286;28;20153;-84
2022/05/22 12:05:53;;;;;;;5.25;1.60;;;21.30;99.20;;;;;;5017850;28;20101;-85
2022/05/22 12:08:43;;;;;;;5.13;1.70;;;22.40;99.90;;;;;;5032753;28;20351;-85
2022/05/22 12:11:12;;;;;;;5.43;1.67;;;23.10;99.90;;;;;;5019101;28;20389;-84
2022/05/22 12:13:43;;;;;;;5.05;1.40;;;23.50;99.90;;;;;;5011557;28;20041;-84
2022/05/22 12:16:31;;;;;;;6.40;1.65;;;23.50;97.40;;;;;;5016560;28;20484;-84
2022/05/22 12:19:26;;;;;;;7.72;1.80;;;24.40;99.90;;;;;;5059415;28;20446;-84
2022/05/22 12:22:12;;;;;;;5.00;1.33;;;24.10;98.00;;;;;;5032001;28;20041;-84
2022/05/22 12:24:52;;;;;;;5.88;1.77;;;22.90;93.20;;;;;;5012354;28;20040;-85
2022/05/22 12:27:31;;;;;;;4.97;1.73;;;22.40;94.50;;;;;;5022483;28;20041;-84
2022/05/22 12:30:23;;;;;;;5.05;1.80;;;23.10;93.90;;;;;;5030340;28;20132;-84
2022/05/22 12:32:56;;;;;;;5.03;1.67;;;22.70;92.10;;;;;;5010215;28;20132;-84
2022/05/22 12:35:24;;;;;;;5.85;1.50;;;23.50;96.40;;;;;;5014912;28;20114;-85
2022/05/22 12:38:03;;;;;;;4.63;1.30;;;23.20;90.50;;;;;;5042369;28;20492;-85
2022/05/22 12:40:58;;;;;;;4.53;1.40;;;22.90;92.50;;;;;;5038573;28;20079;-84
2022/05/22 12:43:25;;;;;;;3.30;1.30;;;22.40;83.40;;;;;;5045333;28;20037;-85
2022/05/22 12:45:59;;;;;;;5.55;1.58;;;22.20;81.70;;;;;;5013321;28;20942;-85
2022/05/22 12:48:37;;;;;;;3.42;1.38;;;22.40;82.50;;;;;;5017571;28;20050;-85
2022/05/22 12:51:18;;;;;;;4.30;1.40;;;23.30;89.00;;;;;;5010830;28;20048;-85
2022/05/22 12:53:47;;;;;;;3.83;1.40;;;24.40;94.20;;;;;;5019951;28;20049;-85
2022/05/22 12:56:38;;;;;;;2.65;1.17;;;24.70;94.20;;;;;;5037096;28;20048;-85
2022/05/22 12:59:21;;;;;;;6.25;1.50;;;24.20;90.70;;;;;;5019879;28;20033;-85
2022/05/22 13:01:50;;;;;;;5.97;2.15;;;24.80;92.40;;;;;;5037001;28;20464;-85
2022/05/22 13:04:16;;;;;;;6.30;1.65;;;24.20;76.50;;;;;;5033806;28;20053;-84
2022/05/22 13:06:54;;;;;;;4.55;1.73;;;24.40;76.50;;;;;;5038280;28;20036;-85
2022/05/22 13:09:31;;;;;;;6.35;1.90;;;25.10;78.70;;;;;;5016976;28;20029;-84
2022/05/22 13:12:21;;;;;;;4.50;1.33;;;25.70;90.20;;;;;;5044994;28;20465;-85
2022/05/22 13:15:14;;;;;;;4.13;1.63;;;25.00;79.70;;;;;;5011712;28;20120;-85
2022/05/22 13:17:50;;;;;;;6.18;2.30;;;25.10;74.20;;;;;;5052497;28;20060;-85
2022/05/22 13:20:46;;;;;;;5.88;1.95;;;24.70;67.00;;;;;;5048859;28;20080;-86